Time;durP1;ratioP1;P1;durP2;ratioP2;P2;SDS_P1;SDS_P2;PMS_P1;PMS_P2;Temp;Humidity;BMP_temperature;BMP_pressure;BME280_temperature;BME280_humidity;BME280_pressure;Samples;Min_cycle;Max_cycle;Signal;HPM_P1;HPM_P2
2022/06/24 00:00:52;;;;;;;;;;;;;;;17.41;57.15;99868.38;6246989;28;19921;-82
2022/06/24 00:03:53;;;;;;;;;;;;;;;17.40;59.69;99871.13;6246718;28;19970;-83
2022/06/24 00:06:54;;;;;;;;;;;;;;;17.29;59.40;99874.78;6230546;28;20383;-82
2022/06/24 00:09:57;;;;;;;;;;;;;;;17.22;58.12;99876.31;6247022;28;19921;-84
2022/06/24 00:12:58;;;;;;;;;;;;;;;17.11;58.27;99874.63;6247752;28;19948;-83
2022/06/24 00:16:02;;;;;;;;;;;;;;;17.10;58.52;99871.19;6245858;28;19928;-83
2022/06/24 00:19:12;;;;;;;;;;;;;;;17.12;59.36;99866.59;6229437;28;20290;-82
2022/06/24 00:22:12;;;;;;;;;;;;;;;17.11;61.43;99857.03;6245731;28;19927;-83
2022/06/24 00:25:13;;;;;;;;;;;;;;;17.08;61.05;99870.50;6229801;28;19921;-83
2022/06/24 00:28:14;;;;;;;;;;;;;;;17.04;62.90;99869.09;6229761;28;20338;-83
2022/06/24 00:31:15;;;;;;;;;;;;;;;16.97;60.42;99864.56;6229867;28;20298;-83
2022/06/24 00:34:23;;;;;;;;;;;;;;;16.94;62.47;99864.81;6229884;28;19921;-83
2022/06/24 00:37:28;;;;;;;;;;;;;;;16.88;61.58;99867.06;6246207;28;19971;-81
2022/06/24 00:40:31;;;;;;;;;;;;;;;16.75;61.09;99865.63;6245769;28;20322;-81
2022/06/24 00:43:35;;;;;;;;;;;;;;;16.79;62.83;99867.00;6246209;28;19921;-81
2022/06/24 00:46:37;;;;;;;;;;;;;;;16.78;64.21;99873.22;6245726;28;20330;-81
2022/06/24 00:49:38;;;;;;;;;;;;;;;16.81;66.13;99878.28;6245606;28;20546;-81
2022/06/24 00:52:39;;;;;;;;;;;;;;;16.79;63.44;99875.75;6229039;28;19927;-81
2022/06/24 00:55:41;;;;;;;;;;;;;;;16.58;62.27;99865.31;6293649;28;19927;-81
2022/06/24 00:58:58;;;;;;;;;;;;;;;16.58;66.21;99865.31;6286330;28;19928;-81
2022/06/24 01:01:59;;;;;;;;;;;;;;;16.45;62.80;99865.59;6273119;28;19920;-81
2022/06/24 01:05:07;;;;;;;;;;;;;;;16.50;66.76;99863.38;6273786;28;19928;-81
2022/06/24 01:08:13;;;;;;;;;;;;;;;16.42;69.05;99859.75;6273781;28;19924;-81
2022/06/24 01:11:22;;;;;;;;;;;;;;;16.39;67.03;99857.38;6273855;28;20308;-81
2022/06/24 01:14:23;;;;;;;;;;;;;;;16.27;64.76;99861.94;6274278;28;19925;-81
2022/06/24 01:17:23;;;;;;;;;;;;;;;16.28;64.54;99855.69;6274573;28;19920;-81
2022/06/24 01:20:24;;;;;;;;;;;;;;;16.29;65.57;99849.47;6274161;28;20015;-82
2022/06/24 01:23:25;;;;;;;;;;;;;;;16.26;65.64;99847.94;6290934;28;20031;-82
2022/06/24 01:26:26;;;;;;;;;;;;;;;16.22;65.27;99843.91;6273939;28;20335;-79
2022/06/24 01:29:27;;;;;;;;;;;;;;;16.19;64.54;99843.38;6290852;28;19929;-79
2022/06/24 01:32:28;;;;;;;;;;;;;;;16.19;65.06;99841.56;6305900;28;20232;-78
2022/06/24 01:35:29;;;;;;;;;;;;;;;16.17;66.21;99845.28;6288430;28;19979;-78
2022/06/24 01:38:29;;;;;;;;;;;;;;;16.10;64.50;99847.59;6291244;28;20326;-80
2022/06/24 01:41:31;;;;;;;;;;;;;;;16.01;64.93;99845.78;6308185;28;19921;-77
2022/06/24 01:44:32;;;;;;;;;;;;;;;15.84;65.42;99847.25;6289486;28;19921;-78
2022/06/24 01:47:33;;;;;;;;;;;;;;;15.94;65.11;99849.91;6272850;28;19928;-78
2022/06/24 01:50:34;;;;;;;;;;;;;;;15.99;66.27;99850.34;6289506;28;20035;-77
2022/06/24 01:53:35;;;;;;;;;;;;;;;15.92;65.77;99850.06;6272788;28;19956;-78
2022/06/24 01:56:36;;;;;;;;;;;;;;;15.85;65.83;99848.91;6273205;28;19927;-78
2022/06/24 01:59:37;;;;;;;;;;;;;;;15.83;66.66;99845.59;6274783;28;19962;-79
2022/06/24 02:02:38;;;;;;;;;;;;;;;15.74;66.12;99844.59;6290134;28;19974;-79
2022/06/24 02:05:40;;;;;;;;;;;;;;;15.77;67.07;99846.09;6289972;28;19921;-77
2022/06/24 02:08:41;;;;;;;;;;;;;;;15.75;66.17;99853.31;6273561;28;20367;-79
2022/06/24 02:15:01;;;;;;;;;;;;;;;15.66;68.84;99854.91;6274437;28;20347;-78
2022/06/24 02:18:02;;;;;;;;;;;;;;;15.61;68.63;99857.09;6289679;28;19921;-77
2022/06/24 02:21:06;;;;;;;;;;;;;;;15.56;71.15;99852.22;6306395;28;20322;-77
2022/06/24 02:24:07;;;;;;;;;;;;;;;15.56;70.32;99854.00;6274094;28;19927;-78
2022/06/24 02:27:12;;;;;;;;;;;;;;;15.48;69.04;99852.03;6272835;28;19925;-77
2022/06/24 02:30:16;;;;;;;;;;;;;;;15.55;70.77;99847.09;6273046;28;19967;-78
2022/06/24 02:33:16;;;;;;;;;;;;;;;15.55;69.73;99855.81;6272766;28;19920;-77
2022/06/24 02:36:20;;;;;;;;;;;;;;;15.48;69.35;99850.25;6289493;28;19948;-78
2022/06/24 02:39:20;;;;;;;;;;;;;;;15.56;70.35;99859.28;6272880;28;19921;-77
2022/06/24 02:42:21;;;;;;;;;;;;;;;15.56;69.67;99859.28;6289320;28;19974;-77
2022/06/24 02:45:23;;;;;;;;;;;;;;;15.58;70.46;99867.88;6305802;28;20031;-77
2022/06/24 02:48:23;;;;;;;;;;;;;;;15.55;72.53;99868.97;6272453;28;19982;-79
2022/06/24 02:51:24;;;;;;;;;;;;;;;15.51;69.96;99863.13;6272354;28;19920;-80
2022/06/24 02:54:25;;;;;;;;;;;;;;;15.58;69.56;99857.34;6305702;28;19928;-79
2022/06/24 02:57:25;;;;;;;;;;;;;;;15.63;69.62;99861.25;6288987;28;19994;-80
2022/06/24 03:00:29;;;;;;;;;;;;;;;15.70;68.64;99858.94;6288577;28;19920;-79
2022/06/24 03:03:31;;;;;;;;;;;;;;;15.76;68.77;99866.31;6304900;28;19920;-80
2022/06/24 03:06:31;;;;;;;;;;;;;;;15.75;69.39;99864.69;6271926;28;20013;-79
2022/06/24 03:09:32;;;;;;;;;;;;;;;15.78;69.21;99869.66;6273160;28;19924;-79
2022/06/24 03:12:33;;;;;;;;;;;;;;;15.81;69.56;99871.19;6288561;28;20326;-78
2022/06/24 03:15:34;;;;;;;;;;;;;;;15.76;69.55;99868.97;6305380;28;19931;-79
2022/06/24 03:18:35;;;;;;;;;;;;;;;15.81;68.72;99879.09;6304914;28;19925;-79
2022/06/24 03:21:35;;;;;;;;;;;;;;;15.82;69.92;99871.06;6271680;28;19982;-79
2022/06/24 03:24:36;;;;;;;;;;;;;;;15.84;69.46;99884.91;6304941;28;19928;-79
2022/06/24 03:27:37;;;;;;;;;;;;;;;15.93;68.91;99875.41;6305036;28;19920;-78
2022/06/24 03:30:38;;;;;;;;;;;;;;;15.90;68.98;99878.31;6305008;28;19967;-78
2022/06/24 03:33:38;;;;;;;;;;;;;;;15.94;69.04;99884.97;6305024;28;19943;-80
2022/06/24 03:36:39;;;;;;;;;;;;;;;16.01;69.33;99886.09;6287967;28;19943;-78
2022/06/24 03:39:40;;;;;;;;;;;;;;;16.04;68.83;99880.59;6271356;28;20011;-78
2022/06/24 03:42:40;;;;;;;;;;;;;;;16.07;68.65;99892.63;6287940;28;20015;-78
2022/06/24 03:45:41;;;;;;;;;;;;;;;16.10;69.61;99890.56;6287673;28;20427;-78
2022/06/24 03:48:42;;;;;;;;;;;;;;;16.10;69.17;99894.97;6270950;28;20329;-79
2022/06/24 03:51:42;;;;;;;;;;;;;;;16.16;69.76;99894.44;6287832;28;19920;-80
2022/06/24 03:54:44;;;;;;;;;;;;;;;16.16;69.60;99889.19;6287607;28;20019;-79
2022/06/24 03:57:44;;;;;;;;;;;;;;;16.22;69.25;99890.47;6270853;28;20291;-79
2022/06/24 04:00:45;;;;;;;;;;;;;;;16.25;68.42;99891.03;6287299;28;20295;-78
2022/06/24 04:03:47;;;;;;;;;;;;;;;16.36;68.10;99891.91;6304008;28;19963;-77
2022/06/24 04:06:48;;;;;;;;;;;;;;;16.48;67.79;99889.00;6272393;28;19929;-79
2022/06/24 04:09:49;;;;;;;;;;;;;;;16.50;68.26;99883.63;6272332;28;19927;-80
2022/06/24 04:12:50;;;;;;;;;;;;;;;16.63;66.86;99883.34;6304068;28;19952;-78
2022/06/24 04:15:50;;;;;;;;;;;;;;;16.69;66.92;99888.91;6303808;28;20008;-79
2022/06/24 04:18:51;;;;;;;;;;;;;;;16.75;67.32;99890.16;6303766;28;19969;-78
2022/06/24 04:21:52;;;;;;;;;;;;;;;16.80;68.10;99895.88;6270355;28;20337;-77
2022/06/24 04:24:53;;;;;;;;;;;;;;;16.93;67.21;99908.78;6303559;28;19921;-79
2022/06/24 04:27:54;;;;;;;;;;;;;;;16.93;67.29;99900.88;6286782;28;19920;-77
2022/06/24 04:30:55;;;;;;;;;;;;;;;17.04;65.21;99905.19;6303658;28;20280;-79
2022/06/24 04:33:55;;;;;;;;;;;;;;;17.16;65.87;99897.97;6269798;28;19928;-79
2022/06/24 04:36:56;;;;;;;;;;;;;;;17.17;65.86;99903.09;6303322;28;20376;-78
2022/06/24 04:39:58;;;;;;;;;;;;;;;17.24;64.09;99903.38;6271235;28;20053;-78
2022/06/24 04:42:58;;;;;;;;;;;;;;;17.33;65.55;99905.97;6270058;28;20109;-77
2022/06/24 04:46:00;;;;;;;;;;;;;;;17.40;65.31;99902.78;6286465;28;19920;-79
2022/06/24 04:49:03;;;;;;;;;;;;;;;17.45;65.93;99904.03;6269881;28;19925;-79
2022/06/24 04:52:05;;;;;;;;;;;;;;;17.57;64.42;99902.06;6271045;28;20405;-78
2022/06/24 04:55:06;;;;;;;;;;;;;;;17.69;65.35;99902.75;6269810;28;19956;-78
2022/06/24 04:58:08;;;;;;;;;;;;;;;17.80;64.09;99901.75;6271041;28;19921;-79
2022/06/24 05:01:11;;;;;;;;;;;;;;;17.88;62.03;99894.78;6286775;28;19920;-78
2022/06/24 05:04:13;;;;;;;;;;;;;;;18.00;62.33;99905.19;6270792;28;19970;-79
2022/06/24 05:07:14;;;;;;;;;;;;;;;18.10;62.97;99913.91;6302911;28;20398;-80
2022/06/24 05:10:14;;;;;;;;;;;;;;;18.18;61.22;99911.34;6269639;28;19921;-79
2022/06/24 05:13:15;;;;;;;;;;;;;;;18.26;63.22;99918.53;6269718;28;20082;-82
2022/06/24 05:16:15;;;;;;;;;;;;;;;18.37;60.67;99922.81;6286145;28;19952;-80
2022/06/24 05:19:16;;;;;;;;;;;;;;;18.51;59.21;99924.91;6286096;28;19964;-80
2022/06/24 05:22:17;;;;;;;;;;;;;;;18.64;58.86;99927.22;6269730;28;20011;-80
2022/06/24 05:25:17;;;;;;;;;;;;;;;18.75;58.42;99932.28;6269801;28;19925;-79
2022/06/24 05:28:18;;;;;;;;;;;;;;;18.85;58.90;99921.69;6302955;28;19975;-82
2022/06/24 05:31:19;;;;;;;;;;;;;;;18.96;57.79;99929.38;6302855;28;20015;-80
2022/06/24 05:34:20;;;;;;;;;;;;;;;19.14;57.49;99924.09;6269493;28;19927;-80
2022/06/24 05:37:20;;;;;;;;;;;;;;;19.24;56.79;99924.03;6269290;28;19920;-81
2022/06/24 05:40:23;;;;;;;;;;;;;;;19.33;56.14;99931.88;6302300;28;19927;-80
2022/06/24 05:43:24;;;;;;;;;;;;;;;19.53;56.91;99932.50;6270419;28;19921;-83
2022/06/24 05:46:24;;;;;;;;;;;;;;;19.71;56.87;99927.22;6287799;28;19928;-83
2022/06/24 05:49:25;;;;;;;;;;;;;;;19.86;54.88;99931.94;6276181;28;19920;-82
2022/06/24 05:55:45;;;;;;;;;;;;;;;20.13;55.81;99928.25;6302357;28;19958;-81
2022/06/24 05:58:45;;;;;;;;;;;;;;;20.32;54.19;99930.69;6273723;28;19969;-81
2022/06/24 06:01:47;;;;;;;;;;;;;;;20.44;54.21;99931.19;6290296;28;19932;-81
2022/06/24 06:04:48;;;;;;;;;;;;;;;20.56;52.71;99929.09;6306730;28;19925;-84
2022/06/24 06:07:49;;;;;;;;;;;;;;;20.80;53.77;99931.00;6273530;28;20276;-84
2022/06/24 06:10:50;;;;;;;;;;;;;;;20.95;52.52;99935.69;6290053;28;20027;-84
2022/06/24 06:13:54;;;;;;;;;;;;;;;21.14;51.41;99933.53;6290205;28;20394;-83
2022/06/24 06:16:54;;;;;;;;;;;;;;;21.28;50.68;99940.00;6273345;28;19939;-82
2022/06/24 06:19:57;;;;;;;;;;;;;;;21.40;56.23;99943.16;6289820;28;19925;-84
2022/06/24 06:23:01;;;;;;;;;;;;;;;21.63;52.13;99939.84;6274402;28;20022;-82
2022/06/24 06:26:02;;;;;;;;;;;;;;;21.92;51.14;99945.44;6272641;28;20383;-82
2022/06/24 06:29:04;;;;;;;;;;;;;;;22.13;51.56;99942.25;6273004;28;20015;-82
2022/06/24 06:32:05;;;;;;;;;;;;;;;22.29;47.89;99938.69;6272947;28;19920;-83
2022/06/24 06:35:06;;;;;;;;;;;;;;;22.34;48.43;99940.84;6272894;28;19921;-82
2022/06/24 06:38:08;;;;;;;;;;;;;;;22.58;48.51;99942.56;6289351;28;19921;-82
2022/06/24 06:41:08;;;;;;;;;;;;;;;22.67;45.92;99941.53;6289301;28;20287;-81
2022/06/24 06:44:11;;;;;;;;;;;;;;;22.74;44.12;99931.81;6289286;28;19921;-81
2022/06/24 06:47:12;;;;;;;;;;;;;;;22.97;48.21;99941.66;6289040;28;19929;-81
2022/06/24 06:50:13;;;;;;;;;;;;;;;23.03;44.12;99933.00;6272589;28;20318;-81
2022/06/24 06:53:14;;;;;;;;;;;;;;;23.24;45.38;99942.16;6273611;28;19927;-81
2022/06/24 06:56:15;;;;;;;;;;;;;;;23.50;44.37;99942.59;6305418;28;19921;-81
2022/06/24 06:59:16;;;;;;;;;;;;;;;23.68;44.80;99931.63;6288987;28;19956;-82
2022/06/24 07:02:19;;;;;;;;;;;;;;;23.77;43.65;99939.56;6305732;28;19952;-82
2022/06/24 07:05:19;;;;;;;;;;;;;;;24.06;42.52;99931.56;6272224;28;19928;-83
2022/06/24 07:08:23;;;;;;;;;;;;;;;24.28;41.76;99931.66;6273258;28;19924;-83
2022/06/24 07:11:23;;;;;;;;;;;;;;;24.47;42.97;99939.06;6272445;28;20379;-85
2022/06/24 07:14:27;;;;;;;;;;;;;;;24.66;42.98;99943.00;6273269;28;19928;-83
2022/06/24 07:17:28;;;;;;;;;;;;;;;24.96;41.90;99929.56;6271616;28;19921;-83
2022/06/24 07:20:29;;;;;;;;;;;;;;;24.89;39.05;99928.66;6305264;28;19931;-85
2022/06/24 07:23:32;;;;;;;;;;;;;;;24.86;40.26;99932.56;6288440;28;19921;-84
2022/06/24 07:26:33;;;;;;;;;;;;;;;24.88;38.48;99930.53;6304497;28;19920;-86
2022/06/24 07:29:34;;;;;;;;;;;;;;;24.87;39.14;99928.03;6305169;28;20398;-82
2022/06/24 07:32:35;;;;;;;;;;;;;;;24.68;38.67;99927.63;6271657;28;19921;-82
2022/06/24 07:35:36;;;;;;;;;;;;;;;25.00;38.28;99933.53;6288263;28;19964;-86
2022/06/24 07:38:37;;;;;;;;;;;;;;;25.13;37.64;99930.97;6305000;28;20338;-82
2022/06/24 07:41:38;;;;;;;;;;;;;;;25.17;38.60;99934.06;6272752;28;19975;-82
2022/06/24 07:44:42;;;;;;;;;;;;;;;25.30;37.07;99933.41;6304412;28;19921;-84
2022/06/24 07:47:43;;;;;;;;;;;;;;;25.53;37.44;99931.34;6303889;28;20291;-84
2022/06/24 07:50:44;;;;;;;;;;;;;;;25.72;37.93;99926.34;6287680;28;20279;-83
2022/06/24 07:53:46;;;;;;;;;;;;;;;26.02;36.32;99921.59;6270388;28;19928;-82
2022/06/24 07:57:01;;;;;;;;;;;;;;;26.00;35.30;99920.13;6286989;28;19921;-80
2022/06/24 08:00:03;;;;;;;;;;;;;;;25.91;41.32;99916.81;6300152;28;19921;-84
2022/06/24 08:03:05;;;;;;;;;;;;;;;26.18;36.25;99915.09;6271816;28;19920;-83
2022/06/24 08:06:05;;;;;;;;;;;;;;;26.31;37.49;99915.13;6303797;28;20334;-87
2022/06/24 08:09:07;;;;;;;;;;;;;;;26.08;34.93;99910.09;6271006;28;19921;-84
2022/06/24 08:12:08;;;;;;;;;;;;;;;26.38;34.60;99901.81;6270830;28;20011;-87
2022/06/24 08:15:11;;;;;;;;;;;;;;;26.64;36.63;99898.38;6287635;28;19925;-84
2022/06/24 08:18:12;;;;;;;;;;;;;;;26.65;33.60;99900.06;6286766;28;20300;-82
2022/06/24 08:21:13;;;;;;;;;;;;;;;26.78;34.77;99895.75;6304190;28;19920;-86
2022/06/24 08:24:14;;;;;;;;;;;;;;;26.74;36.05;99900.69;6270610;28;19928;-85
2022/06/24 08:27:14;;;;;;;;;;;;;;;27.17;33.57;99894.97;6287229;28;19920;-86
2022/06/24 08:30:15;;;;;;;;;;;;;;;26.81;36.98;99895.34;6287206;28;19920;-88
2022/06/24 08:33:16;;;;;;;;;;;;;;;27.04;33.61;99885.09;6270544;28;19921;-84
2022/06/24 08:36:17;;;;;;;;;;;;;;;27.03;33.51;99883.41;6287085;28;19920;-85
2022/06/24 08:39:20;;;;;;;;;;;;;;;27.55;32.02;99886.34;6287235;28;20611;-87
2022/06/24 08:42:26;;;;;;;;;;;;;;;27.67;30.89;99881.13;6302938;28;20011;-86
2022/06/24 08:45:28;;;;;;;;;;;;;;;28.03;30.24;99886.00;6270221;28;19924;-83
2022/06/24 08:48:31;;;;;;;;;;;;;;;28.12;31.13;99878.56;6253572;28;20387;-83
2022/06/24 08:51:33;;;;;;;;;;;;;;;28.30;31.25;99878.69;6269961;28;19921;-82
2022/06/24 08:54:34;;;;;;;;;;;;;;;28.14;29.90;99882.66;6269908;28;19966;-82
2022/06/24 08:57:34;;;;;;;;;;;;;;;28.34;33.03;99882.56;6269926;28;19970;-83
2022/06/24 09:00:36;;;;;;;;;;;;;;;28.65;32.02;99882.84;6303040;28;19928;-84
2022/06/24 09:03:37;;;;;;;;;;;;;;;28.82;28.88;99875.91;6269704;28;19963;-81
2022/06/24 09:06:39;;;;;;;;;;;;;;;28.44;29.65;99868.69;6269776;28;19924;-82
2022/06/24 09:09:57;;;;;;;;;;;;;;;28.58;31.65;99872.16;6269667;28;19931;-82
2022/06/24 09:12:58;;;;;;;;;;;;;;;28.85;32.28;99877.38;6271038;28;19963;-81
2022/06/24 09:16:06;;;;;;;;;;;;;;;28.88;29.32;99869.66;6269623;28;20329;-82
2022/06/24 09:19:12;;;;;;;;;;;;;;;29.06;29.31;99866.22;6270618;28;19928;-83
2022/06/24 09:22:23;;;;;;;;;;;;;;;29.06;30.15;99863.53;6275813;28;19964;-83
2022/06/24 09:25:24;;;;;;;;;;;;;;;29.54;29.58;99862.09;6273516;28;20286;-82
2022/06/24 09:28:29;;;;;;;;;;;;;;;29.59;31.35;99861.41;6241110;28;19921;-81
2022/06/24 09:31:31;;;;;;;;;;;;;;;28.14;31.20;99852.34;6274670;28;20015;-82
2022/06/24 09:34:32;;;;;;;;;;;;;;;28.18;31.99;99856.25;6274443;28;19963;-82
2022/06/24 09:37:45;;;;;;;;;;;;;;;29.11;32.15;99850.28;6291110;28;20327;-81
2022/06/24 09:40:48;;;;;;;;;;;;;;;29.65;30.52;99847.94;6274434;28;20008;-84
2022/06/24 09:43:52;;;;;;;;;;;;;;;29.76;28.98;99851.75;6275489;28;19928;-81
2022/06/24 09:47:03;;;;;;;;;;;;;;;28.80;28.29;99840.41;6257423;28;19925;-79
2022/06/24 09:50:07;;;;;;;;;;;;;;;29.29;28.62;99846.84;6273649;28;19929;-79
2022/06/24 09:53:09;;;;;;;;;;;;;;;29.70;28.59;99848.09;6240121;28;19931;-79
2022/06/24 09:56:10;;;;;;;;;;;;;;;29.87;28.18;99839.44;6275136;28;20437;-79
2022/06/24 10:02:32;;;;;;;;;;;;;;;30.52;27.77;99842.31;6275196;28;19960;-80
2022/06/24 10:05:36;;;;;;;;;;;;;;;30.60;28.38;99843.84;6273512;28;19920;-80
2022/06/24 10:08:37;;;;;;;;;;;;;;;30.49;24.10;99842.75;6273690;28;19966;-79
2022/06/24 10:11:40;;;;;;;;;;;;;;;30.81;24.51;99844.38;6256746;28;20227;-79
2022/06/24 10:14:41;;;;;;;;;;;;;;;31.16;27.29;99847.13;6273558;28;20480;-79
2022/06/24 10:17:43;;;;;;;;;;;;;;;31.24;23.32;99835.19;6256743;28;19929;-79
2022/06/24 10:20:47;;;;;;;;;;;;;;;30.58;25.86;99832.50;6256671;28;19920;-80
2022/06/24 10:23:48;;;;;;;;;;;;;;;30.15;25.50;99830.81;6273085;28;19928;-79
2022/06/24 10:26:55;;;;;;;;;;;;;;;29.15;27.12;99826.50;6256375;28;19920;-78
2022/06/24 10:29:56;;;;;;;;;;;;;;;30.11;24.88;99824.22;6256331;28;19925;-80
2022/06/24 10:33:13;;;;;;;;;;;;;;;30.71;24.53;99829.59;6255739;28;20337;-78
2022/06/24 10:36:29;;;;;;;;;;;;;;;30.70;25.54;99825.28;6272984;28;19943;-78
2022/06/24 10:39:30;;;;;;;;;;;;;;;28.45;25.60;99811.31;6289491;28;19977;-81
2022/06/24 10:42:33;;;;;;;;;;;;;;;30.00;26.74;99817.75;6289663;28;19921;-79
2022/06/24 10:45:34;;;;;;;;;;;;;;;30.74;27.78;99817.53;6272513;28;19920;-79
2022/06/24 10:48:44;;;;;;;;;;;;;;;31.43;25.77;99819.69;6272595;28;20018;-79
2022/06/24 10:51:45;;;;;;;;;;;;;;;31.70;22.46;99810.03;6255880;28;20082;-78
2022/06/24 10:55:06;;;;;;;;;;;;;;;31.68;23.81;99809.47;6272559;28;20011;-80
2022/06/24 10:58:09;;;;;;;;;;;;;;;31.59;22.57;99802.81;6273510;28;20027;-79
2022/06/24 11:01:10;;;;;;;;;;;;;;;31.73;25.14;99808.75;6273627;28;19927;-80
2022/06/24 11:04:15;;;;;;;;;;;;;;;31.77;24.78;99804.50;6271671;28;19974;-81
2022/06/24 11:07:21;;;;;;;;;;;;;;;31.84;24.29;99799.00;6270963;28;19925;-80
2022/06/24 11:10:30;;;;;;;;;;;;;;;32.46;25.42;99793.69;6255673;28;20287;-81
2022/06/24 11:13:30;;;;;;;;;;;;;;;32.48;22.45;99796.13;6271003;28;19978;-82
2022/06/24 11:16:31;;;;;;;;;;;;;;;32.82;24.97;99807.78;6254649;28;20265;-80
2022/06/24 11:19:39;;;;;;;;;;;;;;;32.51;20.43;99807.28;6255336;28;19921;-81
2022/06/24 11:22:51;;;;;;;;;;;;;;;32.62;22.11;99794.78;6273239;28;19920;-83
2022/06/24 11:25:56;;;;;;;;;;;;;;;32.18;22.25;99786.44;6271865;28;19924;-82
2022/06/24 11:28:57;;;;;;;;;;;;;;;31.63;23.14;99789.66;6270104;28;19927;-81
2022/06/24 11:31:58;;;;;;;;;;;;;;;30.86;25.63;99791.44;6270556;28;20299;-81
2022/06/24 11:34:59;;;;;;;;;;;;;;;29.82;24.58;99789.03;6254513;28;19925;-82
2022/06/24 11:38:04;;;;;;;;;;;;;;;30.96;29.95;99793.56;6254313;28;19943;-82
2022/06/24 11:41:05;;;;;;;;;;;;;;;31.00;25.72;99793.94;6254308;28;19921;-83
2022/06/24 11:44:06;;;;;;;;;;;;;;;31.59;24.92;99792.03;6253645;28;19934;-83
2022/06/24 11:47:07;;;;;;;;;;;;;;;31.30;23.22;99791.13;6271321;28;19960;-80
2022/06/24 11:50:19;;;;;;;;;;;;;;;31.89;26.00;99791.00;6271264;28;20027;-81
2022/06/24 11:53:24;;;;;;;;;;;;;;;31.75;22.60;99781.53;6271237;28;19920;-81
2022/06/24 11:56:27;;;;;;;;;;;;;;;31.82;21.01;99766.88;6271023;28;20444;-82
2022/06/24 11:59:28;;;;;;;;;;;;;;;31.39;22.74;99759.22;6270961;28;19921;-82
2022/06/24 12:02:29;;;;;;;;;;;;;;;32.05;23.15;99760.56;6272628;28;19942;-82
2022/06/24 12:05:31;;;;;;;;;;;;;;;31.68;22.67;99757.41;6254121;28;20023;-82
2022/06/24 12:08:32;;;;;;;;;;;;;;;30.89;22.56;99747.09;6270533;28;19928;-80
2022/06/24 12:11:37;;;;;;;;;;;;;;;31.32;24.28;99751.28;6271848;28;19921;-82
2022/06/24 12:14:38;;;;;;;;;;;;;;;32.12;24.50;99755.00;6251148;28;19928;-82
2022/06/24 12:17:49;;;;;;;;;;;;;;;32.01;24.32;99745.94;6253037;28;20388;-83
2022/06/24 12:20:59;;;;;;;;;;;;;;;32.26;24.28;99739.34;6270463;28;19924;-84
2022/06/24 12:24:18;;;;;;;;;;;;;;;32.22;21.87;99736.31;6270503;28;19920;-83
2022/06/24 12:27:18;;;;;;;;;;;;;;;31.89;21.63;99737.84;6271294;28;19928;-80
2022/06/24 12:30:20;;;;;;;;;;;;;;;31.87;26.06;99736.47;6269715;28;19925;-83
2022/06/24 12:33:21;;;;;;;;;;;;;;;31.87;21.88;99742.66;6272025;28;19921;-81
2022/06/24 12:36:23;;;;;;;;;;;;;;;31.59;22.50;99737.25;6253289;28;19920;-84
2022/06/24 12:39:32;;;;;;;;;;;;;;;31.63;22.47;99733.03;6250525;28;20034;-88
2022/06/24 12:42:33;;;;;;;;;;;;;;;31.58;21.03;99730.25;6246166;28;19956;-86
2022/06/24 12:45:42;;;;;;;;;;;;;;;30.59;21.89;99728.31;6229618;28;20024;-89
2022/06/24 12:52:02;;;;;;;;;;;;;;;30.87;22.88;99728.47;6270058;28;19920;-81
2022/06/24 12:55:03;;;;;;;;;;;;;;;31.41;23.81;99720.19;6269639;28;19920;-84
2022/06/24 12:58:05;;;;;;;;;;;;;;;30.97;21.76;99708.19;6270888;28;20282;-83
2022/06/24 13:01:09;;;;;;;;;;;;;;;31.10;24.35;99716.03;6268572;28;20330;-82
2022/06/24 13:04:13;;;;;;;;;;;;;;;30.90;22.88;99711.03;6268543;28;20422;-82
2022/06/24 13:07:14;;;;;;;;;;;;;;;31.32;22.35;99716.25;6282178;28;19952;-82
2022/06/24 13:10:17;;;;;;;;;;;;;;;31.34;22.52;99719.50;6252991;28;19927;-82
2022/06/24 13:13:18;;;;;;;;;;;;;;;31.24;24.17;99724.69;6270563;28;20020;-80
2022/06/24 13:16:19;;;;;;;;;;;;;;;30.86;23.51;99702.56;6272033;28;19928;-81
2022/06/24 13:19:19;;;;;;;;;;;;;;;30.37;22.09;99701.13;6253815;28;19920;-81
2022/06/24 13:22:21;;;;;;;;;;;;;;;30.06;22.69;99700.34;6271587;28;19920;-82
2022/06/24 13:25:22;;;;;;;;;;;;;;;30.56;22.98;99696.47;6254033;28;19970;-84
2022/06/24 13:28:23;;;;;;;;;;;;;;;30.60;22.88;99700.34;6254109;28;19921;-81
2022/06/24 13:31:26;;;;;;;;;;;;;;;30.76;25.98;99699.63;6270534;28;19921;-84
2022/06/24 13:34:27;;;;;;;;;;;;;;;30.84;23.22;99707.34;6254563;28;19975;-82
2022/06/24 13:37:28;;;;;;;;;;;;;;;30.42;23.23;99702.09;6253921;28;19921;-82
2022/06/24 13:40:31;;;;;;;;;;;;;;;30.52;22.15;99702.34;6271578;28;19932;-82
2022/06/24 13:43:32;;;;;;;;;;;;;;;30.44;22.69;99700.00;6271522;28;19927;-82
2022/06/24 13:46:36;;;;;;;;;;;;;;;30.61;22.52;99692.03;6237545;28;19920;-82
2022/06/24 13:49:37;;;;;;;;;;;;;;;30.60;22.64;99692.25;6253772;28;20295;-81
2022/06/24 13:52:38;;;;;;;;;;;;;;;30.49;23.30;99686.63;6253308;28;19928;-83
2022/06/24 13:55:39;;;;;;;;;;;;;;;30.56;24.17;99686.53;6270334;28;20310;-85
2022/06/24 13:58:40;;;;;;;;;;;;;;;30.28;22.74;99685.31;6253564;28;19954;-82
2022/06/24 14:01:41;;;;;;;;;;;;;;;30.25;24.21;99688.47;6270198;28;19921;-83
2022/06/24 14:04:42;;;;;;;;;;;;;;;30.11;25.55;99678.97;6253477;28;19971;-83
2022/06/24 14:07:43;;;;;;;;;;;;;;;30.20;24.68;99674.88;6255700;28;19920;-81
2022/06/24 14:10:45;;;;;;;;;;;;;;;30.02;21.79;99669.56;6257011;28;20319;-80
2022/06/24 14:13:46;;;;;;;;;;;;;;;29.80;23.32;99663.94;6256962;28;19928;-81
2022/06/24 14:16:47;;;;;;;;;;;;;;;29.73;24.99;99664.84;6274686;28;19921;-82
2022/06/24 14:19:47;;;;;;;;;;;;;;;29.64;24.73;99666.16;6257651;28;19921;-82
2022/06/24 14:26:08;;;;;;;;;;;;;;;29.28;25.55;99665.19;6275800;28;19920;-83
2022/06/24 14:29:09;;;;;;;;;;;;;;;29.10;25.12;99657.97;6275599;28;19930;-84
2022/06/24 14:32:10;;;;;;;;;;;;;;;29.03;26.06;99645.63;6257759;28;19920;-82
2022/06/24 14:35:11;;;;;;;;;;;;;;;29.09;24.71;99658.16;6274316;28;19944;-81
2022/06/24 14:41:31;;;;;;;;;;;;;;;29.27;24.64;99649.31;6274114;28;19921;-82
2022/06/24 14:44:32;;;;;;;;;;;;;;;29.46;25.85;99645.53;6273026;28;19920;-83
2022/06/24 14:47:35;;;;;;;;;;;;;;;29.57;23.57;99635.03;6274075;28;19920;-82
2022/06/24 14:50:36;;;;;;;;;;;;;;;29.64;23.76;99633.09;6256178;28;20437;-83
2022/06/24 14:53:37;;;;;;;;;;;;;;;29.51;23.93;99634.94;6272638;28;19920;-82
2022/06/24 14:56:37;;;;;;;;;;;;;;;29.38;23.45;99627.03;6256143;28;19939;-80
2022/06/24 14:59:38;;;;;;;;;;;;;;;29.52;23.61;99622.31;6272459;28;19925;-81
2022/06/24 15:02:41;;;;;;;;;;;;;;;29.45;23.89;99617.03;6256285;28;19932;-79
2022/06/24 15:05:45;;;;;;;;;;;;;;;29.09;23.71;99610.63;6272331;28;19927;-79
2022/06/24 15:08:46;;;;;;;;;;;;;;;29.29;24.75;99605.03;6255710;28;20007;-80
2022/06/24 15:11:47;;;;;;;;;;;;;;;29.31;23.82;99605.63;6272237;28;20326;-82
2022/06/24 15:14:48;;;;;;;;;;;;;;;29.37;25.66;99600.41;6272305;28;19927;-81
2022/06/24 15:17:49;;;;;;;;;;;;;;;29.48;23.80;99596.94;6272897;28;19948;-81
2022/06/24 15:20:50;;;;;;;;;;;;;;;29.50;25.36;99597.53;6255468;28;20325;-80
2022/06/24 15:23:50;;;;;;;;;;;;;;;29.33;25.32;99591.97;6272028;28;19920;-80
2022/06/24 15:26:51;;;;;;;;;;;;;;;29.50;25.63;99584.91;6254995;28;19921;-81
2022/06/24 15:29:52;;;;;;;;;;;;;;;29.60;25.36;99589.72;6238794;28;20379;-80
2022/06/24 15:32:53;;;;;;;;;;;;;;;29.59;25.56;99593.47;6271705;28;19921;-79
2022/06/24 15:35:54;;;;;;;;;;;;;;;29.51;25.57;99594.59;6271677;28;19966;-79
2022/06/24 15:38:55;;;;;;;;;;;;;;;29.22;25.03;99592.72;6271573;28;20356;-78
2022/06/24 15:41:56;;;;;;;;;;;;;;;29.36;24.40;99591.50;6255334;28;19924;-78
2022/06/24 15:44:57;;;;;;;;;;;;;;;29.33;24.88;99589.28;6271443;28;19921;-79
2022/06/24 15:47:58;;;;;;;;;;;;;;;29.62;24.44;99586.81;6254761;28;19974;-80
2022/06/24 15:50:58;;;;;;;;;;;;;;;29.54;24.85;99586.06;6238728;28;19920;-80
2022/06/24 15:53:59;;;;;;;;;;;;;;;29.73;26.02;99591.41;6238045;28;19925;-79
2022/06/24 15:57:02;;;;;;;;;;;;;;;29.85;25.92;99586.06;6272331;28;20434;-79
2022/06/24 16:00:04;;;;;;;;;;;;;;;29.86;23.61;99590.41;6270959;28;20322;-78
2022/06/24 16:03:08;;;;;;;;;;;;;;;29.73;24.22;99586.88;6254586;28;20287;-80
2022/06/24 16:06:08;;;;;;;;;;;;;;;29.89;26.25;99576.50;6271504;28;19921;-79
2022/06/24 16:09:09;;;;;;;;;;;;;;;29.81;24.49;99580.31;6270949;28;19947;-79